Reno, NV (89506)

3:52 PM PDT on August 01, 2015 (GMT -0700)
Golden Valley | | Change Station
CLOSE
Current Station
Personal Weather Station
Location: Reno, NV
Elevation: 5125 ft
Nearby Weather Stations

Elev 5125 ft 39.61 °N, 119.82 °W | Updated 7 minutes ago

Clear
Clear
93.7 °F
Feels Like 90 °F
N
2.2
Wind Variable Wind from WSW

Today
High -- | Low -- °F
--% Chance of Precip.
Yesterday
High -- | Low -- °F
Precip. -- in
5:58 AM 8:12 PM
Full, 97% visible
Pressure 30.08 in
Visibility 10.0 miles
Clouds Clear
Heat Index 90 °F
Dew Point 42 °F
Humidity 17%
Rainfall 0.00 in
Snow Depth Not available.
UV 8 out of 12
Pollen 6.30 out of 12
Air Quality Not available.
Flu Activity Not available.
METAR KRTS 012235Z AUTO 22008KT 10SM CLR 33/00 A3008 RMK AO2

More Conditions Fewer Conditions

Pressure 30.08 in
Visibility 10.0 miles
Clouds Clear
Heat Index 90 °F
Dew Point 42 °F
Humidity 17%
Rainfall 0.00 in
Snow Depth Not available.
UV 8 out of 12
Pollen 6.30 out of 12
Air Quality Not available.
Flu Activity Not available.
METAR KRTS 012235Z AUTO 22008KT 10SM CLR 33/00 A3008 RMK AO2

More Conditions Fewer Conditions

10-Day Weather Forecast

×

Almanac

Astronomy

Aug. 01, 2015 Rise Set
Actual Time
Civil Twilight
Nautical Twilight
Astronomical Twilight
Moon
Length of Visible Light
Length of Day
Tomorrow will be .
, % of the Moon is Illuminated

Today's Extremes

State Highs State Lows

Community

WunderPhotos

Upload Photos

1,843,087 photos uploaded!

WunderBlogs® & News

Nearby

Air Quality

  Air Quality AQ Index Pollutant
Not available.

Snow Depth

Station Depth Elevation

Earthquake Activity

City Distance Mag. Time & Date
Minimum magnitude displayed is 2.5.

Coastal Water Temperatures

Place Temperature

Stations

Nearby Weather Stations

Station Location Temp. Windchill Dew Point Humidity Wind Precip. Elev Updated Type